Terminal Aerodrome Forecast
Issued by NWS

Home | Current Version | Previous Version | Text Only | Print | Product List | Glossary On
Versions: 1 2 3 4 5 6 7 8 9 10 11 12 13 14
773
FTUS43 KOAX 130520
TAFCDR
TAF
KCDR 130520Z 1306/1406 18007KT 4SM BR OVC015
     FM130900 17009KT 2SM BR OVC007
     FM131600 21008KT P6SM OVC025
     FM131800 23012G20KT P6SM SCT025 SCT250=

USA.gov is the U.S. government's official web portal to all federal, state and local government web resources and services.